createdAt,value
2023-01-19T00:03:13.555Z,-2.9
2023-01-19T00:09:01.815Z,-2.5
2023-01-19T00:14:29.826Z,-2.3
2023-01-19T00:19:58.887Z,-2.4
2023-01-19T00:25:46.279Z,-2.6
2023-01-19T00:30:59.369Z,-2.8
2023-01-19T00:36:51.188Z,-2.9
2023-01-19T00:42:02.938Z,-3.2
2023-01-19T00:47:57.469Z,-3.2
2023-01-19T00:53:29.751Z,-3.2
2023-01-19T00:58:55.642Z,-3
2023-01-19T01:04:36.537Z,-4.1
2023-01-19T01:10:02.955Z,-3.3
2023-01-19T01:15:34.305Z,-3.7
2023-01-19T01:21:18.217Z,-3.5
2023-01-19T01:26:27.871Z,-3.8
2023-01-19T01:32:22.799Z,-3.5
2023-01-19T01:37:33.641Z,-3.1
2023-01-19T01:43:25.593Z,-3.3
2023-01-19T01:48:58.601Z,-3.3
2023-01-19T01:54:29.650Z,-3.5
2023-01-19T01:59:43.778Z,-3.6
2023-01-19T02:05:27.141Z,-3.5
2023-01-19T02:11:10.185Z,-3.7
2023-01-19T02:16:28.258Z,-3.9
2023-01-19T02:21:52.068Z,-3.6
2023-01-19T02:27:45.079Z,-3.5
2023-01-19T02:33:15.451Z,-3.6
2023-01-19T02:38:42.009Z,-3.8
2023-01-19T02:44:15.675Z,-3.7
2023-01-19T02:49:47.964Z,-3.7
2023-01-19T02:55:30.649Z,-3.9
2023-01-19T03:00:49.050Z,-4.7
2023-01-19T03:06:24.471Z,-4.5
2023-01-19T03:12:07.348Z,-4.6
2023-01-19T03:17:27.986Z,-4
2023-01-19T03:23:12.166Z,-4.1
2023-01-19T03:28:37.907Z,-4.2
2023-01-19T03:34:07.209Z,-4.3
2023-01-19T03:39:52.067Z,-4.3
2023-01-19T03:45:22.791Z,-4.6
2023-01-19T03:50:54.066Z,-4.6
2023-01-19T03:56:20.393Z,-5
2023-01-19T04:01:52.771Z,-4.8
2023-01-19T04:07:13.760Z,-4.8
2023-01-19T04:13:05.355Z,-4.6
2023-01-19T04:18:21.554Z,-4.4
2023-01-19T04:24:03.930Z,-4.6
2023-01-19T04:29:22.330Z,-4.8
2023-01-19T04:35:18.730Z,-5.3
2023-01-19T04:40:38.960Z,-5.3
2023-01-19T04:46:08.500Z,-5.5
2023-01-19T04:51:48.085Z,-5.2
2023-01-19T04:57:06.407Z,-5.1
2023-01-19T05:19:31.867Z,-5.1
2023-01-19T05:25:04.428Z,-5
2023-01-19T05:30:23.069Z,-5.1
2023-01-19T05:36:18.133Z,-5.2
2023-01-19T05:41:43.801Z,-5.1
2023-01-19T05:47:18.364Z,-5.2
2023-01-19T05:52:35.871Z,-5.3
2023-01-19T05:58:26.196Z,-5.3
2023-01-19T06:03:37.673Z,-5.1
2023-01-19T06:09:29.529Z,-5.3
2023-01-19T06:14:59.841Z,-5.4
2023-01-19T06:20:32.958Z,-5.3
2023-01-19T06:26:04.229Z,-5.4
2023-01-19T06:31:28.615Z,-5.3
2023-01-19T06:36:54.768Z,-5.3
2023-01-19T06:42:44.759Z,-5.4
2023-01-19T06:48:02.878Z,-5.6
2023-01-19T06:53:38.940Z,-5.5
2023-01-19T06:59:04.692Z,-5.4
2023-01-19T07:04:55.797Z,-5.4
2023-01-19T07:10:27.355Z,-5.6
2023-01-19T07:16:07.458Z,-5.6
2023-01-19T07:21:29.007Z,-5.8
2023-01-19T07:27:06.595Z,-5.8
2023-01-19T07:32:38.077Z,-5.4
2023-01-19T07:38:07.528Z,-5.3
2023-01-19T07:43:33.132Z,-5.1
2023-01-19T07:49:08.280Z,-4.8
2023-01-19T07:54:45.515Z,-4.9
2023-01-19T08:00:27.216Z,-5
2023-01-19T08:05:57.395Z,-4.7
2023-01-19T08:11:31.072Z,-4.3
2023-01-19T08:16:52.894Z,-4.3
2023-01-19T08:22:31.935Z,-4
2023-01-19T08:28:00.022Z,-4.1
2023-01-19T08:33:39.506Z,-4
2023-01-19T08:39:01.360Z,-3.9
2023-01-19T08:44:31.038Z,-4
2023-01-19T08:50:14.258Z,-3.7
2023-01-19T08:55:51.989Z,-3
2023-01-19T09:01:30.258Z,-3.6
2023-01-19T09:06:41.850Z,-3.4
2023-01-19T09:12:13.517Z,-1.9
2023-01-19T09:17:50.885Z,-2
2023-01-19T09:23:29.211Z,-2
2023-01-19T09:29:16.359Z,-2.7
2023-01-19T09:34:34.786Z,-2.6
2023-01-19T09:40:09.997Z,-2.2
2023-01-19T09:45:38.607Z,-2.4
2023-01-19T09:51:20.770Z,-2.2
2023-01-19T09:56:58.408Z,-2.4
2023-01-19T10:02:19.315Z,-2.1
2023-01-19T10:07:51.472Z,-2.2
2023-01-19T10:13:17.204Z,-1.1
2023-01-19T10:19:11.595Z,-1.2
2023-01-19T10:24:37.296Z,-1
2023-01-19T10:30:01.061Z,-0.6
2023-01-19T10:35:44.458Z,-0.5
2023-01-19T10:41:17.700Z,-1.9
2023-01-19T10:46:55.665Z,-1.2
2023-01-19T10:52:25.208Z,-0.3
2023-01-19T10:58:05.496Z,-0.2
2023-01-19T11:03:41.496Z,-0.2
2023-01-19T11:09:05.379Z,-0.1
2023-01-19T11:14:32.804Z,-0.5
2023-01-19T11:19:57.090Z,-0.2
2023-01-19T11:25:57.227Z,-0.1
2023-01-19T11:31:29.928Z,0
2023-01-19T11:36:40.096Z,0.2
2023-01-19T11:42:22.979Z,0.2
2023-01-19T11:48:01.863Z,0
2023-01-19T11:53:36.222Z,0.2
2023-01-19T11:59:00.025Z,0.2
2023-01-19T12:04:49.094Z,-0.3
2023-01-19T12:09:58.918Z,-0.5
2023-01-19T12:15:37.267Z,-0.6
2023-01-19T12:21:05.483Z,-0.4
2023-01-19T12:27:04.603Z,-0.4
2023-01-19T12:32:40.879Z,-0.2
2023-01-19T12:37:55.190Z,-0.1
2023-01-19T12:43:44.665Z,0
2023-01-19T12:49:22.616Z,0
2023-01-19T12:54:41.672Z,0.6
2023-01-19T13:00:25.532Z,0.8
2023-01-19T13:05:56.600Z,1
2023-01-19T13:11:34.163Z,0.6
2023-01-19T13:16:54.181Z,0.4
2023-01-19T13:22:29.287Z,0.5
2023-01-19T13:28:08.145Z,0.6
2023-01-19T13:33:46.123Z,0.2
2023-01-19T13:39:07.240Z,0
2023-01-19T13:44:43.979Z,0
2023-01-19T13:50:35.256Z,0
2023-01-19T13:55:55.535Z,-0.2
2023-01-19T14:01:44.627Z,-0.2
2023-01-19T14:07:17.123Z,-0.1
2023-01-19T14:12:59.059Z,-0.2
2023-01-19T14:18:06.152Z,-0.1
2023-01-19T14:23:59.494Z,-0.1
2023-01-19T14:29:15.416Z,0
2023-01-19T14:34:47.580Z,-0.1
2023-01-19T14:40:30.120Z,-0.2
2023-01-19T14:46:21.505Z,-0.2
2023-01-19T14:51:42.766Z,-0.1
2023-01-19T14:57:17.830Z,-0.2
2023-01-19T15:03:02.080Z,-0.1
2023-01-19T15:08:21.044Z,-0.1
2023-01-19T15:13:57.371Z,-0.1
2023-01-19T15:19:24.427Z,-0.1
2023-01-19T15:24:51.489Z,-0.1
2023-01-19T15:30:52.179Z,-0.1
2023-01-19T15:36:24.414Z,-0.2
2023-01-19T15:41:43.384Z,-0.4
2023-01-19T15:47:25.974Z,-0.6
2023-01-19T15:52:57.591Z,-0.6
2023-01-19T15:58:31.106Z,-0.6
2023-01-19T16:03:52.166Z,-0.7
2023-01-19T16:09:27.144Z,-0.7
2023-01-19T16:15:04.961Z,-0.9
2023-01-19T16:20:29.418Z,-0.9
2023-01-19T16:26:05.491Z,-1.3
2023-01-19T16:31:49.130Z,-1.4
2023-01-19T16:37:25.701Z,-1.5
2023-01-19T16:42:36.055Z,-1.5
2023-01-19T16:48:31.866Z,-1.7
2023-01-19T16:53:41.378Z,-1.8
2023-01-19T16:59:33.784Z,-1.7
2023-01-19T17:05:00.755Z,-2
2023-01-19T17:10:28.830Z,-2.2
2023-01-19T17:15:59.100Z,-2.2
2023-01-19T17:21:42.038Z,-2.5
2023-01-19T17:27:04.103Z,-2.5
2023-01-19T17:32:48.093Z,-2.4
2023-01-19T17:38:14.748Z,-2.6
2023-01-19T17:43:48.735Z,-2.8
2023-01-19T17:49:28.781Z,-2.6
2023-01-19T17:54:46.427Z,-2.4
2023-01-19T18:00:17.230Z,-2.5
2023-01-19T18:05:58.891Z,-2.5
2023-01-19T18:11:34.596Z,-2.6
2023-01-19T18:16:50.821Z,-2.6
2023-01-19T18:22:46.596Z,-2.5
2023-01-19T18:27:59.468Z,-2.5
2023-01-19T18:33:33.413Z,-2.6
2023-01-19T18:39:17.805Z,-2.5
2023-01-19T18:44:54.100Z,-2.7
2023-01-19T18:50:06.289Z,-3
2023-01-19T18:55:51.156Z,-3.1
2023-01-19T19:01:17.152Z,-3.1
2023-01-19T19:06:52.949Z,-3.2
2023-01-19T19:12:19.799Z,-3
2023-01-19T19:18:09.546Z,-3.1
2023-01-19T19:23:38.066Z,-3.1
2023-01-19T19:28:59.312Z,-3.1
2023-01-19T19:34:32.299Z,-3.4
2023-01-19T19:40:06.056Z,-3.6
2023-01-19T19:45:52.565Z,-3.6
2023-01-19T19:51:32.367Z,-3.6
2023-01-19T19:56:43.531Z,-3.8
2023-01-19T20:02:38.124Z,-3.9
2023-01-19T20:07:44.335Z,-4
2023-01-19T20:13:27.515Z,-4
2023-01-19T20:18:50.739Z,-4
2023-01-19T20:24:22.141Z,-4
2023-01-19T20:30:20.960Z,-3.8
2023-01-19T20:35:41.015Z,-3.9
2023-01-19T20:41:25.524Z,-4
2023-01-19T20:46:50.392Z,-3.9
2023-01-19T20:52:31.979Z,-4.2
2023-01-19T20:57:49.666Z,-4.1
2023-01-19T21:03:21.735Z,-4.1
2023-01-19T21:09:07.557Z,-4.2
2023-01-19T21:14:40.522Z,-4.2
2023-01-19T21:20:08.916Z,-4.3
2023-01-19T21:25:38.568Z,-4.3
2023-01-19T21:31:17.401Z,-4.3
2023-01-19T21:36:31.764Z,-4.4
2023-01-19T21:42:22.940Z,-4.4
2023-01-19T21:47:44.333Z,-4.4
2023-01-19T21:53:16.359Z,-4.3
2023-01-19T21:58:58.874Z,-4.5
2023-01-19T22:04:21.593Z,-4.5
2023-01-19T22:09:42.886Z,-4.4
2023-01-19T22:15:38.363Z,-4.7
2023-01-19T22:20:48.362Z,-4.5
2023-01-19T22:26:39.683Z,-4.4
2023-01-19T22:32:14.015Z,-4.5
2023-01-19T22:37:39.325Z,-4.4
2023-01-19T22:43:06.634Z,-4.5
2023-01-19T22:48:32.932Z,-4.6
2023-01-19T22:54:26.890Z,-4.8
2023-01-19T22:59:56.242Z,-4.8
2023-01-19T23:05:07.222Z,-5.1
2023-01-19T23:10:53.825Z,-4.8
2023-01-19T23:16:33.552Z,-5
2023-01-19T23:21:56.194Z,-4.8
2023-01-19T23:27:41.158Z,-5
2023-01-19T23:33:15.793Z,-5.2
2023-01-19T23:38:22.558Z,-5.2
2023-01-19T23:43:53.662Z,-5.4
2023-01-19T23:49:41.988Z,-5.6
2023-01-19T23:55:09.744Z,-5.7
